Time;durP1;ratioP1;P1;durP2;ratioP2;P2;SDS_P1;SDS_P2;PMS_P1;PMS_P2;Temp;Humidity;BMP_temperature;BMP_pressure;BME280_temperature;BME280_humidity;BME280_pressure;Samples;Min_cycle;Max_cycle;Signal;HPM_P1;HPM_P2
2021/03/18 00:00:00;;;;;;;9.32;3.38;;;;;;;1.94;77.77;102333.91;5015515;28;20505;-67
2021/03/18 00:02:26;;;;;;;10.30;3.20;;;;;;;1.96;77.91;102332.28;5018845;28;20054;-66
2021/03/18 00:04:52;;;;;;;7.45;2.70;;;;;;;2.00;77.72;102328.16;5016675;28;20502;-66
2021/03/18 00:07:18;;;;;;;14.82;3.13;;;;;;;1.99;77.63;102321.25;5019496;28;20502;-66
2021/03/18 00:09:44;;;;;;;12.85;2.80;;;;;;;1.92;77.93;102325.25;5017093;28;20056;-66
2021/03/18 00:12:11;;;;;;;8.57;2.75;;;;;;;1.90;78.01;102323.44;5016388;28;20049;-65
2021/03/18 00:14:37;;;;;;;14.00;2.80;;;;;;;1.88;78.36;102327.63;5018338;28;20053;-67
2021/03/18 00:17:03;;;;;;;10.73;3.20;;;;;;;1.89;78.27;102329.38;5020031;28;20141;-67
2021/03/18 00:19:29;;;;;;;11.68;3.45;;;;;;;1.85;78.07;102339.50;5017165;28;20525;-66
2021/03/18 00:21:55;;;;;;;9.77;2.70;;;;;;;1.85;78.25;102334.38;5020962;28;20053;-66
2021/03/18 00:24:21;;;;;;;11.93;3.40;;;;;;;1.87;78.44;102337.03;5016573;28;20046;-65
2021/03/18 00:26:47;;;;;;;12.30;3.25;;;;;;;1.95;77.96;102340.78;5019928;28;20410;-66
2021/03/18 00:29:14;;;;;;;8.73;3.60;;;;;;;1.98;77.92;102334.91;5016254;28;20049;-67
2021/03/18 00:31:40;;;;;;;10.45;3.33;;;;;;;2.06;77.55;102337.78;5018878;28;20053;-66
2021/03/18 00:34:06;;;;;;;11.68;3.40;;;;;;;2.13;77.15;102348.41;5019794;28;20045;-67
2021/03/18 00:36:32;;;;;;;9.52;2.90;;;;;;;2.12;77.26;102338.94;5014833;28;20044;-65
2021/03/18 00:38:58;;;;;;;11.18;3.97;;;;;;;2.10;77.22;102342.22;5017561;28;20053;-66
2021/03/18 00:41:24;;;;;;;9.60;3.28;;;;;;;2.11;77.46;102343.97;5013802;28;20057;-67
2021/03/18 00:43:50;;;;;;;10.70;3.50;;;;;;;2.10;77.04;102340.56;5021528;28;20072;-64
2021/03/18 00:46:21;;;;;;;11.02;3.13;;;;;;;2.11;77.08;102339.75;5022258;28;22149;-67
2021/03/18 00:48:47;;;;;;;11.10;3.78;;;;;;;2.00;77.25;102346.13;5021441;28;20057;-67
2021/03/18 00:51:16;;;;;;;10.35;3.60;;;;;;;1.92;77.25;102342.34;5022652;28;20095;-67
2021/03/18 00:53:43;;;;;;;12.00;3.70;;;;;;;1.88;77.70;102346.47;5022971;28;20046;-67
2021/03/18 00:56:12;;;;;;;9.80;3.20;;;;;;;1.92;77.28;102352.63;5019330;28;20049;-67
2021/03/18 00:58:39;;;;;;;11.00;3.22;;;;;;;1.83;77.51;102355.66;5022004;28;20455;-68
2021/03/18 01:01:06;;;;;;;10.77;3.08;;;;;;;1.80;77.71;102351.28;5019673;28;20045;-66
2021/03/18 01:03:34;;;;;;;10.32;3.88;;;;;;;1.82;77.39;102351.31;5023853;28;20053;-68
2021/03/18 01:06:04;;;;;;;10.68;3.15;;;;;;;1.81;77.79;102354.69;5019152;28;20465;-67
2021/03/18 01:08:31;;;;;;;9.80;3.20;;;;;;;1.83;77.52;102353.97;5019763;28;21013;-64
2021/03/18 01:10:59;;;;;;;9.27;3.50;;;;;;;1.86;77.85;102346.41;5020592;28;20110;-66
2021/03/18 01:13:26;;;;;;;17.48;4.75;;;;;;;1.88;77.76;102337.88;5019416;28;20058;-66
2021/03/18 01:15:55;;;;;;;9.93;3.38;;;;;;;1.91;77.50;102332.91;5019316;28;20046;-66
2021/03/18 01:18:23;;;;;;;12.02;3.78;;;;;;;1.86;77.52;102330.13;5020711;28;20054;-66
2021/03/18 01:20:49;;;;;;;11.30;3.30;;;;;;;1.90;77.71;102334.56;5027679;28;20081;-65
2021/03/18 01:23:15;;;;;;;8.35;3.47;;;;;;;1.94;77.21;102328.75;5019823;28;20148;-66
2021/03/18 01:25:42;;;;;;;7.63;3.42;;;;;;;1.92;77.03;102334.66;5024058;28;20045;-67
2021/03/18 01:28:10;;;;;;;17.13;3.42;;;;;;;1.89;77.43;102339.66;5018182;28;20045;-67
2021/03/18 01:30:38;;;;;;;10.18;3.42;;;;;;;1.81;77.58;102344.44;5017384;28;20053;-66
2021/03/18 01:33:04;;;;;;;14.05;3.20;;;;;;;1.77;77.53;102348.56;5021556;28;20045;-67
2021/03/18 01:35:30;;;;;;;13.50;3.63;;;;;;;1.72;78.00;102357.75;5021193;28;20524;-67
2021/03/18 01:37:58;;;;;;;11.07;3.53;;;;;;;1.70;78.07;102364.50;5018860;28;20098;-67
2021/03/18 01:40:28;;;;;;;9.68;3.95;;;;;;;1.64;78.17;102366.81;5018134;28;20556;-66
2021/03/18 01:42:54;;;;;;;11.38;3.42;;;;;;;1.53;78.48;102367.22;5017192;28;20099;-67
2021/03/18 01:45:21;;;;;;;9.13;3.45;;;;;;;1.53;78.05;102361.19;5019536;28;20053;-67
2021/03/18 01:47:49;;;;;;;10.15;3.70;;;;;;;1.45;78.83;102355.72;5020534;28;20104;-67
2021/03/18 01:50:18;;;;;;;13.02;3.47;;;;;;;1.50;78.39;102356.81;5018589;28;20053;-66
2021/03/18 01:52:44;;;;;;;11.05;3.65;;;;;;;1.43;78.70;102362.50;5022158;28;20141;-67
2021/03/18 01:55:18;;;;;;;8.77;3.47;;;;;;;1.40;78.49;102360.66;5019529;28;20081;-66
2021/03/18 01:57:46;;;;;;;12.60;3.97;;;;;;;1.35;78.40;102357.00;5018856;28;20049;-66
2021/03/18 02:00:13;;;;;;;12.77;3.50;;;;;;;1.32;78.48;102358.56;5018650;28;20049;-67
2021/03/18 02:02:40;;;;;;;9.02;3.35;;;;;;;1.30;79.10;102355.91;5018244;28;20774;-67
2021/03/18 02:05:07;;;;;;;11.57;3.53;;;;;;;1.27;78.81;102352.34;5020484;28;20082;-68
2021/03/18 02:07:33;;;;;;;11.90;3.67;;;;;;;1.23;79.12;102354.78;5019846;28;20069;-67
2021/03/18 02:09:59;;;;;;;8.52;3.35;;;;;;;1.27;79.24;102347.22;5018114;28;20046;-67
2021/03/18 02:12:26;;;;;;;9.77;3.05;;;;;;;1.28;79.16;102349.84;5015294;28;20064;-66
2021/03/18 02:14:53;;;;;;;11.52;3.88;;;;;;;1.27;79.04;102337.84;5022514;28;20049;-66
2021/03/18 02:17:25;;;;;;;15.80;3.78;;;;;;;1.28;79.15;102331.91;5020624;28;20049;-69
2021/03/18 02:20:28;;;;;;;12.18;3.80;;;;;;;1.32;79.28;102338.06;5018653;28;20076;-67
2021/03/18 02:23:38;;;;;;;9.35;3.20;;;;;;;1.32;78.93;102330.38;5019689;28;20053;-66
2021/03/18 02:26:17;;;;;;;12.18;3.30;;;;;;;1.29;78.66;102335.34;5017825;28;20045;-68
2021/03/18 02:29:06;;;;;;;10.18;3.00;;;;;;;1.24;79.09;102330.00;5020787;28;20037;-67
2021/03/18 02:31:49;;;;;;;9.05;2.83;;;;;;;1.18;79.17;102333.19;5019106;28;20058;-67
2021/03/18 02:34:53;;;;;;;9.30;3.15;;;;;;;1.13;79.62;102329.53;5018021;28;20049;-67
2021/03/18 02:37:23;;;;;;;17.80;3.78;;;;;;;1.16;79.49;102327.09;5017561;28;20041;-67
2021/03/18 02:39:55;;;;;;;10.25;3.20;;;;;;;1.16;79.62;102323.66;5014542;28;20089;-66
2021/03/18 02:42:23;;;;;;;8.60;2.92;;;;;;;1.08;79.88;102316.53;5018768;28;20049;-67
2021/03/18 02:44:52;;;;;;;11.00;3.33;;;;;;;1.14;79.91;102313.34;5017051;28;20092;-66
2021/03/18 02:47:22;;;;;;;15.25;3.53;;;;;;;1.19;79.74;102303.31;5015916;28;20045;-68
2021/03/18 02:49:50;;;;;;;9.35;3.45;;;;;;;1.27;79.30;102301.06;5016031;28;20049;-67
2021/03/18 02:52:20;;;;;;;12.75;3.70;;;;;;;1.26;79.58;102301.88;5019831;28;20049;-66
2021/03/18 02:54:48;;;;;;;11.63;3.25;;;;;;;1.23;79.40;102306.06;5015291;28;20073;-66
2021/03/18 02:57:16;;;;;;;11.35;3.30;;;;;;;1.24;79.72;102307.84;5017228;28;20516;-66
2021/03/18 02:59:45;;;;;;;11.32;3.17;;;;;;;1.21;79.71;102288.84;5014910;28;20490;-68
2021/03/18 03:02:14;;;;;;;9.52;3.45;;;;;;;1.25;79.41;102285.63;5022113;28;20053;-67
2021/03/18 03:04:42;;;;;;;11.60;3.28;;;;;;;1.28;79.17;102280.66;5016498;28;20482;-67
2021/03/18 03:07:10;;;;;;;17.45;3.63;;;;;;;1.24;79.58;102277.06;5018274;28;20050;-66
2021/03/18 03:09:37;;;;;;;6.75;2.97;;;;;;;1.23;79.70;102293.25;5017831;28;20045;-67
2021/03/18 03:12:08;;;;;;;14.93;4.30;;;;;;;1.20;79.41;102280.31;5014908;28;20053;-67
2021/03/18 03:14:34;;;;;;;15.35;4.53;;;;;;;1.18;79.50;102281.91;5019327;28;20050;-68
2021/03/18 03:17:02;;;;;;;10.40;3.33;;;;;;;1.15;79.79;102299.72;5018686;28;20046;-68
2021/03/18 03:19:29;;;;;;;11.20;4.25;;;;;;;1.07;79.58;102298.50;5017982;28;20049;-67
2021/03/18 03:21:57;;;;;;;9.82;3.20;;;;;;;1.08;80.07;102297.69;5018018;28;20482;-68
2021/03/18 03:24:25;;;;;;;9.77;3.28;;;;;;;1.08;80.27;102301.16;5025695;28;20053;-68
2021/03/18 03:26:54;;;;;;;11.65;3.83;;;;;;;1.10;80.00;102293.50;5025235;28;20057;-67
2021/03/18 03:29:21;;;;;;;11.32;3.30;;;;;;;1.01;80.17;102290.53;5017595;28;20058;-66
2021/03/18 03:31:47;;;;;;;12.70;4.18;;;;;;;1.04;80.41;102288.97;5018879;28;20050;-67
2021/03/18 03:34:13;;;;;;;13.55;3.67;;;;;;;1.04;80.16;102296.66;5016130;28;20099;-67
2021/03/18 03:36:39;;;;;;;7.97;3.72;;;;;;;1.01;80.42;102295.66;5016338;28;20037;-67
2021/03/18 03:39:07;;;;;;;10.65;3.58;;;;;;;0.92;80.47;102302.13;5015262;28;20753;-67
2021/03/18 03:41:34;;;;;;;15.57;4.28;;;;;;;0.92;80.90;102301.22;5019521;28;20049;-66
2021/03/18 03:44:00;;;;;;;9.55;3.38;;;;;;;0.92;80.74;102299.56;5016859;28;20053;-66
2021/03/18 03:46:27;;;;;;;10.40;4.05;;;;;;;0.92;80.76;102303.78;5019904;28;20053;-68
2021/03/18 03:48:53;;;;;;;8.75;3.28;;;;;;;0.96;81.00;102302.25;5020119;28;20046;-66
2021/03/18 03:51:20;;;;;;;15.18;4.32;;;;;;;0.96;80.89;102307.38;5016736;28;20103;-67
2021/03/18 03:53:51;;;;;;;15.02;4.13;;;;;;;0.99;80.73;102318.66;5016651;28;20103;-67
2021/03/18 03:56:22;;;;;;;14.52;3.80;;;;;;;0.93;80.63;102316.69;5015829;28;20049;-66
2021/03/18 03:58:51;;;;;;;14.45;3.90;;;;;;;0.93;80.83;102321.81;5016894;28;20056;-66
2021/03/18 04:01:25;;;;;;;14.77;4.28;;;;;;;0.92;81.13;102327.75;5016590;28;20045;-67
2021/03/18 04:03:54;;;;;;;11.07;3.75;;;;;;;0.92;80.73;102311.47;5019170;28;20053;-68
2021/03/18 04:06:21;;;;;;;20.30;4.35;;;;;;;0.87;81.18;102311.28;5017656;28;20053;-68
2021/03/18 04:08:50;;;;;;;9.10;3.72;;;;;;;0.88;81.24;102317.28;5017690;28;20046;-67
2021/03/18 04:11:16;;;;;;;12.43;4.50;;;;;;;0.93;81.17;102316.69;5014830;28;20612;-67
2021/03/18 04:13:44;;;;;;;9.75;4.18;;;;;;;0.97;81.26;102316.81;5018275;28;20045;-67
2021/03/18 04:16:10;;;;;;;14.77;4.32;;;;;;;0.97;81.28;102316.81;5017265;28;20072;-67
2021/03/18 04:18:41;;;;;;;11.90;4.25;;;;;;;0.94;81.11;102315.00;5021128;28;20057;-66
2021/03/18 04:21:10;;;;;;;12.13;3.70;;;;;;;0.97;81.33;102314.25;5022062;28;20046;-67
2021/03/18 04:23:37;;;;;;;13.43;4.25;;;;;;;1.01;81.36;102308.47;5026854;28;20053;-66
2021/03/18 04:26:05;;;;;;;13.25;4.70;;;;;;;1.01;81.32;102301.66;5021111;28;20061;-68
2021/03/18 04:28:33;;;;;;;15.43;4.32;;;;;;;1.10;80.71;102302.91;5023058;28;20502;-67
2021/03/18 04:31:01;;;;;;;14.35;4.55;;;;;;;1.10;80.74;102302.91;5020876;28;20187;-67
2021/03/18 04:33:28;;;;;;;18.15;4.75;;;;;;;1.08;80.38;102295.13;5020838;28;20041;-67
2021/03/18 04:35:56;;;;;;;17.42;4.18;;;;;;;1.06;80.39;102300.19;5018857;28;20057;-67
2021/03/18 04:38:27;;;;;;;15.43;4.28;;;;;;;1.06;80.57;102295.06;5018644;28;20049;-65
2021/03/18 04:40:53;;;;;;;10.23;4.75;;;;;;;1.05;80.67;102298.44;5021713;28;20126;-67
2021/03/18 04:43:20;;;;;;;15.60;4.47;;;;;;;1.03;81.10;102292.34;5017957;28;20060;-67
2021/03/18 04:45:47;;;;;;;15.93;4.15;;;;;;;1.00;81.00;102286.22;5019645;28;20561;-67
2021/03/18 04:48:14;;;;;;;12.85;4.22;;;;;;;0.98;80.79;102283.59;5020865;28;20266;-66
2021/03/18 04:50:40;;;;;;;10.15;5.18;;;;;;;0.92;81.77;102284.19;5017977;28;20076;-67
2021/03/18 04:53:06;;;;;;;11.30;4.50;;;;;;;0.95;81.33;102286.00;5020794;28;20502;-67
2021/03/18 04:55:33;;;;;;;12.55;4.45;;;;;;;0.93;81.27;102285.94;5020296;28;20502;-66
2021/03/18 04:58:03;;;;;;;10.75;4.63;;;;;;;0.95;81.29;102282.59;5020442;28;20046;-66
2021/03/18 05:00:30;;;;;;;10.40;4.88;;;;;;;0.96;81.26;102281.75;5016719;28;20487;-65
2021/03/18 05:03:01;;;;;;;10.48;4.38;;;;;;;0.91;81.77;102277.31;5020845;28;20053;-66
2021/03/18 05:05:28;;;;;;;15.35;3.90;;;;;;;0.90;81.77;102270.44;5022866;28;20726;-64
2021/03/18 05:07:54;;;;;;;12.02;4.32;;;;;;;0.88;82.14;102272.03;5019163;28;20068;-67
2021/03/18 05:10:24;;;;;;;14.50;5.65;;;;;;;0.90;82.65;102280.69;5021807;28;20096;-66
2021/03/18 05:12:54;;;;;;;13.85;4.28;;;;;;;0.94;82.18;102279.13;5020024;28;20053;-68
2021/03/18 05:15:21;;;;;;;11.18;4.28;;;;;;;0.99;82.21;102271.66;5021287;28;20050;-67
2021/03/18 05:17:48;;;;;;;17.58;4.30;;;;;;;1.03;82.07;102271.00;5022512;28;20123;-67
2021/03/18 05:20:17;;;;;;;14.68;4.38;;;;;;;1.03;81.58;102260.75;5019834;28;20057;-64
2021/03/18 05:22:45;;;;;;;14.10;5.82;;;;;;;1.05;82.01;102261.66;5020027;28;20042;-66
2021/03/18 05:25:13;;;;;;;15.80;5.75;;;;;;;1.11;82.17;102254.25;5021953;28;20542;-66
2021/03/18 05:27:39;;;;;;;14.30;4.75;;;;;;;1.14;81.86;102249.28;5022077;28;20045;-66
2021/03/18 05:30:09;;;;;;;17.40;4.90;;;;;;;1.17;81.50;102259.66;5020052;28;20056;-65
2021/03/18 05:32:36;;;;;;;10.07;4.28;;;;;;;1.24;81.26;102260.81;5020640;28;20153;-67
2021/03/18 05:35:04;;;;;;;13.20;4.47;;;;;;;1.24;81.31;102255.69;5022657;28;20057;-66
2021/03/18 05:37:30;;;;;;;11.20;4.40;;;;;;;1.20;81.12;102259.78;5022377;28;20053;-67
2021/03/18 05:39:56;;;;;;;18.30;6.63;;;;;;;1.23;81.11;102247.13;5017314;28;20061;-67
2021/03/18 05:42:22;;;;;;;15.93;6.03;;;;;;;1.25;80.96;102247.19;5017351;28;20172;-67
2021/03/18 05:44:48;;;;;;;12.63;5.03;;;;;;;1.23;81.01;102252.25;5021013;28;20061;-67
2021/03/18 05:47:16;;;;;;;14.25;5.15;;;;;;;1.27;80.87;102249.81;5018933;28;20050;-67
2021/03/18 05:49:43;;;;;;;12.98;4.38;;;;;;;1.29;81.18;102245.63;5015706;28;20418;-65
2021/03/18 05:52:11;;;;;;;17.35;5.18;;;;;;;1.23;80.95;102252.25;5016386;28;20045;-67
2021/03/18 05:54:40;;;;;;;19.77;5.00;;;;;;;1.28;81.16;102241.31;5021222;28;20059;-67
2021/03/18 05:57:07;;;;;;;14.98;4.78;;;;;;;1.33;81.09;102232.13;5020234;28;20052;-65
2021/03/18 05:59:35;;;;;;;16.83;5.55;;;;;;;1.29;81.13;102232.81;5020034;28;20580;-66
2021/03/18 06:02:02;;;;;;;14.55;5.10;;;;;;;1.35;81.03;102233.06;5020358;28;20473;-68
2021/03/18 06:04:28;;;;;;;11.60;4.75;;;;;;;1.40;80.80;102234.16;5021603;28;20085;-66
2021/03/18 06:06:55;;;;;;;12.75;4.43;;;;;;;1.41;80.45;102241.03;5020588;28;20046;-67
2021/03/18 06:09:21;;;;;;;13.23;4.35;;;;;;;1.35;80.91;102244.22;5019318;28;20767;-66
2021/03/18 06:11:47;;;;;;;15.20;4.97;;;;;;;1.42;80.98;102236.75;5019447;28;20507;-66
2021/03/18 06:14:13;;;;;;;11.15;4.63;;;;;;;1.44;80.87;102233.47;5032656;28;20422;-66
2021/03/18 06:16:40;;;;;;;15.48;5.00;;;;;;;1.43;80.86;102230.84;5021671;28;20073;-68
2021/03/18 06:19:07;;;;;;;18.13;6.25;;;;;;;1.42;81.04;102218.81;5021092;28;20057;-62
2021/03/18 06:21:48;;;;;;;11.82;4.47;;;;;;;1.43;81.12;102220.56;5020234;28;20489;-65
2021/03/18 06:24:15;;;;;;;13.13;4.72;;;;;;;1.45;81.04;102224.09;5028308;28;20502;-66
2021/03/18 06:26:41;;;;;;;13.90;5.22;;;;;;;1.47;81.01;102222.47;5017329;28;20042;-67
2021/03/18 06:29:28;;;;;;;15.13;5.63;;;;;;;1.43;80.82;102215.44;5021484;28;20092;-66
2021/03/18 06:31:54;;;;;;;13.27;4.90;;;;;;;1.43;81.14;102206.09;5022110;28;20053;-67
2021/03/18 06:34:42;;;;;;;19.98;5.32;;;;;;;1.45;81.12;102221.53;5018904;28;20096;-67
2021/03/18 06:37:37;;;;;;;12.80;5.32;;;;;;;1.43;81.66;102207.75;5020490;28;20085;-65
2021/03/18 06:40:17;;;;;;;14.43;5.40;;;;;;;1.48;81.63;102206.28;5020483;28;20096;-67
2021/03/18 06:42:54;;;;;;;12.57;4.63;;;;;;;1.52;81.32;102210.72;5020996;28;20549;-67
2021/03/18 06:45:21;;;;;;;16.23;5.30;;;;;;;1.56;81.37;102204.91;5033416;28;20052;-66
2021/03/18 06:47:49;;;;;;;13.57;4.90;;;;;;;1.70;80.84;102210.59;5028793;28;20042;-67
2021/03/18 06:50:18;;;;;;;17.63;5.00;;;;;;;1.70;80.73;102211.47;5017170;28;20057;-67
2021/03/18 06:52:45;;;;;;;17.83;5.80;;;;;;;1.77;80.50;102212.59;5018341;28;20048;-66
2021/03/18 06:55:23;;;;;;;16.70;5.60;;;;;;;1.84;80.63;102212.06;5020115;28;20045;-66
2021/03/18 06:57:49;;;;;;;17.58;6.72;;;;;;;1.90;79.89;102193.44;5018310;28;20054;-66
2021/03/18 07:00:35;;;;;;;19.65;6.53;;;;;;;1.91;80.19;102202.03;5021726;28;20057;-67
2021/03/18 07:03:01;;;;;;;13.82;5.57;;;;;;;1.97;80.27;102199.69;5019062;28;20818;-67
2021/03/18 07:05:27;;;;;;;19.27;6.15;;;;;;;2.00;80.05;102204.97;5020477;28;20045;-67
2021/03/18 07:07:54;;;;;;;14.65;5.53;;;;;;;2.07;79.89;102206.94;5023576;28;20042;-65
2021/03/18 07:10:32;;;;;;;13.73;5.88;;;;;;;2.13;79.58;102199.50;5025437;28;20578;-67
2021/03/18 07:13:20;;;;;;;13.38;5.25;;;;;;;2.14;79.46;102196.13;5015407;28;20042;-66
2021/03/18 07:15:46;;;;;;;18.42;6.15;;;;;;;2.20;79.28;102202.31;5018527;28;20053;-67
2021/03/18 07:18:13;;;;;;;18.15;7.55;;;;;;;2.18;79.51;102185.16;5019978;28;20046;-66
2021/03/18 07:20:55;;;;;;;20.85;7.35;;;;;;;2.28;79.37;102191.53;5017989;28;20416;-66
2021/03/18 07:23:31;;;;;;;18.02;7.28;;;;;;;2.35;78.92;102197.75;5016028;28;20045;-68
2021/03/18 07:25:57;;;;;;;15.30;6.80;;;;;;;2.39;78.94;102194.50;5019328;28;20048;-68
2021/03/18 07:28:24;;;;;;;24.00;7.43;;;;;;;2.47;78.68;102187.09;5019232;28;20049;-67
2021/03/18 07:30:51;;;;;;;20.30;7.30;;;;;;;2.52;78.61;102180.41;5028119;28;20049;-66
2021/03/18 07:33:20;;;;;;;16.75;6.90;;;;;;;2.60;78.55;102188.41;5017994;28;20127;-67
2021/03/18 07:35:46;;;;;;;22.10;6.35;;;;;;;2.54;78.79;102189.06;5018071;28;20111;-66
2021/03/18 07:38:12;;;;;;;17.85;6.90;;;;;;;2.69;79.11;102196.47;5019101;28;20529;-67
2021/03/18 07:40:39;;;;;;;15.57;6.40;;;;;;;2.69;78.96;102198.16;5016781;28;20065;-67
2021/03/18 07:43:05;;;;;;;19.88;6.47;;;;;;;2.76;79.27;102211.28;5019932;28;20041;-68
2021/03/18 07:45:31;;;;;;;18.80;6.40;;;;;;;3.06;78.47;102207.22;5023502;28;20053;-66
2021/03/18 07:47:59;;;;;;;10.90;6.38;;;;;;;3.18;77.41;102197.38;5022681;28;20046;-66
2021/03/18 07:50:28;;;;;;;18.85;7.10;;;;;;;3.22;77.65;102198.34;5030171;28;20110;-66
2021/03/18 07:52:56;;;;;;;18.77;6.35;;;;;;;3.37;77.62;102201.44;5016213;28;20064;-67
2021/03/18 07:55:23;;;;;;;17.48;6.60;;;;;;;3.50;76.45;102199.28;5023193;28;20116;-68
2021/03/18 07:57:51;;;;;;;15.65;6.57;;;;;;;3.60;76.51;102193.63;5019320;28;20045;-66
2021/03/18 08:00:19;;;;;;;23.40;6.72;;;;;;;3.62;75.63;102199.69;5021635;28;20049;-67
2021/03/18 08:02:45;;;;;;;18.17;6.13;;;;;;;3.69;75.67;102204.22;5023196;28;20053;-65
2021/03/18 08:05:11;;;;;;;13.05;5.97;;;;;;;3.73;75.32;102194.88;5022547;28;20056;-67
2021/03/18 08:07:44;;;;;;;14.13;6.18;;;;;;;3.87;75.51;102203.06;5023429;28;20037;-66
2021/03/18 08:10:13;;;;;;;15.23;5.90;;;;;;;3.82;75.22;102207.19;5019148;28;20446;-68
2021/03/18 08:12:58;;;;;;;15.82;5.28;;;;;;;3.84;73.98;102197.81;5020872;28;20072;-67
2021/03/18 08:15:33;;;;;;;16.60;5.32;;;;;;;3.79;74.46;102200.25;5019248;28;20048;-69
2021/03/18 08:18:33;;;;;;;14.88;5.43;;;;;;;3.81;75.14;102206.31;5024033;28;20053;-62
2021/03/18 08:21:02;;;;;;;17.95;5.72;;;;;;;3.63;74.99;102208.28;4957499;28;21874;-63
2021/03/18 08:23:39;;;;;;;18.83;5.35;;;;;;;3.63;75.61;102206.59;4955281;28;20062;-64
2021/03/18 08:26:07;;;;;;;11.50;5.70;;;;;;;3.68;75.75;102207.59;4992126;28;20049;-66
2021/03/18 08:28:42;;;;;;;14.65;5.22;;;;;;;3.80;75.96;102211.41;5021273;28;20045;-67
2021/03/18 08:31:10;;;;;;;17.50;5.72;;;;;;;3.86;75.24;102209.91;5024952;28;20053;-65
2021/03/18 08:33:38;;;;;;;14.93;4.97;;;;;;;3.95;75.00;102206.75;5020643;28;20441;-62
2021/03/18 08:36:23;;;;;;;15.32;5.07;;;;;;;3.95;75.01;102204.16;5021960;28;20045;-65
2021/03/18 08:38:50;;;;;;;15.10;5.07;;;;;;;4.07;74.75;102208.84;5020969;28;20045;-63
2021/03/18 08:41:31;;;;;;;19.45;5.65;;;;;;;4.19;74.88;102205.78;5020174;28;20487;-66
2021/03/18 08:44:20;;;;;;;15.50;5.43;;;;;;;4.29;74.10;102202.66;5029098;28;20061;-63
2021/03/18 08:46:54;;;;;;;13.00;5.05;;;;;;;4.34;74.41;102208.81;5043721;28;20052;-65
2021/03/18 08:49:26;;;;;;;18.13;6.07;;;;;;;4.40;73.94;102215.84;5034023;28;20053;-66
2021/03/18 08:51:53;;;;;;;11.13;4.50;;;;;;;4.41;73.52;102215.03;5032687;28;20045;-63
2021/03/18 08:54:54;;;;;;;10.15;4.75;;;;;;;4.41;74.22;102212.44;5043500;28;20053;-64
2021/03/18 08:57:26;;;;;;;13.45;4.68;;;;;;;4.43;74.15;102208.22;5032830;28;20477;-62
2021/03/18 08:59:54;;;;;;;18.88;5.55;;;;;;;4.51;73.85;102211.03;5027430;28;20064;-62
2021/03/18 09:02:24;;;;;;;14.07;4.93;;;;;;;4.55;74.56;102207.69;5018271;28;20107;-63
2021/03/18 09:04:51;;;;;;;14.10;5.35;;;;;;;4.58;73.72;102207.81;5019160;28;20045;-63
2021/03/18 09:07:21;;;;;;;14.73;5.10;;;;;;;4.65;73.05;102207.16;5022687;28;20041;-65
2021/03/18 09:09:58;;;;;;;16.08;5.57;;;;;;;4.70;72.99;102204.69;5019681;28;20135;-63
2021/03/18 09:12:24;;;;;;;14.98;4.57;;;;;;;4.74;73.43;102203.09;5021203;28;20115;-65
2021/03/18 09:14:50;;;;;;;17.52;5.15;;;;;;;4.78;73.52;102212.66;5021076;28;20073;-64
2021/03/18 09:17:17;;;;;;;16.30;4.65;;;;;;;4.84;72.62;102202.53;5020059;28;20045;-66
2021/03/18 09:19:47;;;;;;;13.50;3.92;;;;;;;4.89;72.73;102200.94;5021100;28;20143;-61
2021/03/18 09:22:14;;;;;;;11.23;4.22;;;;;;;5.02;72.14;102193.56;5020439;28;20203;-64
2021/03/18 09:24:45;;;;;;;13.75;4.30;;;;;;;5.16;71.93;102197.38;5022649;28;20057;-65
2021/03/18 09:27:13;;;;;;;10.80;3.58;;;;;;;5.32;72.88;102185.75;5021653;28;20516;-65
2021/03/18 09:29:40;;;;;;;13.43;4.07;;;;;;;5.41;70.90;102190.28;5019322;28;20140;-65
2021/03/18 09:32:08;;;;;;;10.50;3.78;;;;;;;5.43;70.92;102194.66;5022622;28;20399;-63
2021/03/18 09:34:37;;;;;;;11.98;3.17;;;;;;;5.52;70.83;102182.81;5023936;28;20104;-66
2021/03/18 09:37:03;;;;;;;15.77;3.90;;;;;;;5.53;71.45;102190.59;5022385;28;20128;-65
2021/03/18 09:39:29;;;;;;;11.40;3.40;;;;;;;5.67;71.25;102187.47;5022588;28;20046;-63
2021/03/18 09:41:59;;;;;;;9.05;3.20;;;;;;;5.69;70.21;102185.81;5022501;28;20108;-63
2021/03/18 09:44:27;;;;;;;12.68;3.70;;;;;;;5.52;70.21;102182.81;5030134;28;20041;-64
2021/03/18 09:46:55;;;;;;;14.63;4.35;;;;;;;5.47;70.85;102174.09;5020712;28;20053;-64
2021/03/18 09:49:26;;;;;;;14.63;4.25;;;;;;;5.40;71.54;102173.91;5020864;28;20057;-59
2021/03/18 09:51:54;;;;;;;13.15;4.43;;;;;;;5.41;71.68;102186.00;5022204;28;20096;-65
2021/03/18 09:54:23;;;;;;;16.15;3.97;;;;;;;5.46;72.49;102180.94;5018513;28;20080;-65
2021/03/18 09:56:51;;;;;;;10.65;3.28;;;;;;;5.58;71.92;102181.25;5018515;28;20480;-65
2021/03/18 09:59:20;;;;;;;11.95;4.03;;;;;;;5.65;70.90;102173.66;5021665;28;20080;-67
2021/03/18 10:01:46;;;;;;;11.68;3.35;;;;;;;5.59;70.30;102172.69;5022396;28;20549;-64
2021/03/18 10:04:14;;;;;;;13.88;3.95;;;;;;;5.52;70.93;102173.38;5021811;28;20060;-62
2021/03/18 10:06:44;;;;;;;11.45;3.50;;;;;;;5.63;69.58;102172.78;5020498;28;20435;-64
2021/03/18 10:09:23;;;;;;;9.70;3.92;;;;;;;5.59;69.93;102170.09;5024006;28;20049;-62
2021/03/18 10:11:56;;;;;;;10.30;3.55;;;;;;;5.66;70.92;102159.91;5018951;28;20077;-64
2021/03/18 10:14:24;;;;;;;13.23;3.83;;;;;;;5.85;69.47;102161.22;5018854;28;20049;-64
2021/03/18 10:16:51;;;;;;;7.70;2.83;;;;;;;5.87;69.54;102165.59;5017908;28;20072;-65
2021/03/18 10:19:18;;;;;;;10.25;3.20;;;;;;;5.97;69.33;102166.69;5017500;28;20045;-67
2021/03/18 10:21:46;;;;;;;11.23;3.47;;;;;;;6.09;68.70;102157.50;5021326;28;20110;-65
2021/03/18 10:24:14;;;;;;;12.48;3.60;;;;;;;5.95;68.23;102155.44;5020423;28;20119;-65
2021/03/18 10:26:41;;;;;;;11.05;3.83;;;;;;;5.86;68.73;102152.66;5020974;28;20525;-64
2021/03/18 10:29:09;;;;;;;8.85;3.30;;;;;;;5.80;69.01;102149.91;5022642;28;20639;-67
2021/03/18 10:31:37;;;;;;;12.27;3.35;;;;;;;5.74;70.08;102150.63;5019522;28;20478;-64
2021/03/18 10:34:04;;;;;;;9.65;3.90;;;;;;;5.72;70.68;102139.44;5017142;28;20049;-66
2021/03/18 10:36:35;;;;;;;10.85;3.03;;;;;;;5.74;69.58;102145.47;5019342;28;20256;-61
2021/03/18 10:39:03;;;;;;;10.05;3.47;;;;;;;5.75;69.22;102140.38;5018696;28;20061;-67
2021/03/18 10:41:29;;;;;;;14.00;3.78;;;;;;;5.68;70.87;102142.75;5018155;28;20053;-64
2021/03/18 10:43:56;;;;;;;13.10;3.00;;;;;;;5.63;69.89;102140.06;5037735;28;20118;-64
2021/03/18 10:46:28;;;;;;;13.05;3.80;;;;;;;5.57;70.18;102140.78;5020623;28;20049;-66
2021/03/18 10:48:55;;;;;;;12.38;3.35;;;;;;;5.63;71.33;102136.63;5017455;28;20041;-62
2021/03/18 10:51:21;;;;;;;11.55;3.63;;;;;;;5.57;71.69;102138.22;5015693;28;20053;-65
2021/03/18 10:53:49;;;;;;;13.73;4.00;;;;;;;5.56;71.88;102127.84;5021683;28;20046;-61
2021/03/18 10:56:17;;;;;;;15.07;4.20;;;;;;;5.58;70.48;102132.22;5017427;28;20414;-63
2021/03/18 10:58:44;;;;;;;14.82;5.10;;;;;;;5.57;71.89;102130.47;5019697;28;20057;-60
2021/03/18 11:01:13;;;;;;;15.38;4.70;;;;;;;5.54;71.11;102125.22;5016131;28;20053;-63
2021/03/18 11:03:40;;;;;;;11.98;4.05;;;;;;;5.56;70.87;102128.72;5019587;28;20052;-63
2021/03/18 11:06:17;;;;;;;13.43;4.70;;;;;;;5.54;70.94;102122.63;5019801;28;20045;-63
2021/03/18 11:08:45;;;;;;;15.68;4.50;;;;;;;5.55;70.46;102126.97;5020159;28;20502;-66
2021/03/18 11:11:16;;;;;;;16.33;3.80;;;;;;;5.49;70.77;102119.09;5017721;28;20049;-65
2021/03/18 11:13:43;;;;;;;12.57;4.18;;;;;;;5.44;71.04;102128.41;5018458;28;20108;-63
2021/03/18 11:16:11;;;;;;;15.00;4.45;;;;;;;5.39;72.74;102111.97;5017333;28;20061;-62
2021/03/18 11:18:40;;;;;;;23.08;4.57;;;;;;;5.32;73.26;102110.94;5018348;28;20071;-59
2021/03/18 11:21:18;;;;;;;13.65;4.28;;;;;;;5.35;73.84;102104.97;5018181;28;20429;-63
2021/03/18 11:23:45;;;;;;;14.90;4.57;;;;;;;5.36;73.75;102104.13;5020010;28;20050;-64
2021/03/18 11:26:11;;;;;;;10.93;3.50;;;;;;;5.44;72.66;102110.34;5019213;28;20970;-63
2021/03/18 11:28:48;;;;;;;12.27;4.50;;;;;;;5.47;72.19;102107.84;5019169;28;20052;-65
2021/03/18 11:31:17;;;;;;;13.57;4.10;;;;;;;5.51;72.58;102106.22;5016516;28;20076;-62
2021/03/18 11:33:43;;;;;;;15.30;4.20;;;;;;;5.59;71.93;102108.16;5018550;28;20057;-66
2021/03/18 11:36:09;;;;;;;12.73;4.82;;;;;;;5.67;71.06;102095.44;5018575;28;20057;-64